Athabasca, Canada
Current Conditions -  °F | °C
As of 10:00 AM on Sunday 21 Dec 2014 (Local Time) from CYZH Reporting Station
Overcast Overcast  
Wind Chill: 11°   Ceiling: 8000
Heat Index: 18°   Visibility: 7mi
Dew Point: 18°   Wind: 5mph
Humidity: 100%   Direction: 110°ESE
Pressure: 29.36"   Gusts: NA
Location:  54.72°N, 113.27°W
Report Text: CYZH 211700Z AUTO 11004KT 7SM OVC080 M08/M08 A2936 RMK SLP981
Loading
Personal Weather Stations






























Interactive Weather Map New forecast layout! Learn more

10-Day Weather Forecast

Advertisements
Track Severe Weather on mobile